createdAt,value
2023-02-09T00:18:09.522Z,-2.94
2023-02-09T00:28:10.759Z,-3.10
2023-02-09T00:38:12.112Z,-3.14
2023-02-09T00:48:13.383Z,-3.11
2023-02-09T00:58:14.714Z,-3.13
2023-02-09T01:08:15.922Z,-3.15
2023-02-09T01:18:17.117Z,-3.41
2023-02-09T01:28:18.397Z,-3.53
2023-02-09T01:38:19.603Z,-3.71
2023-02-09T01:48:20.920Z,-3.81
2023-02-09T01:58:22.136Z,-3.98
2023-02-09T02:08:23.386Z,-3.96
2023-02-09T02:18:24.619Z,-4.14
2023-02-09T02:28:25.873Z,-4.17
2023-02-09T02:38:27.065Z,-4.35
2023-02-09T02:48:28.326Z,-4.44
2023-02-09T02:58:29.562Z,-4.55
2023-02-09T03:08:30.834Z,-4.68
2023-02-09T03:18:32.355Z,-4.69
2023-02-09T03:28:33.744Z,-4.73
2023-02-09T03:38:35.012Z,-4.87
2023-02-09T03:48:36.228Z,-5.04
2023-02-09T03:58:37.450Z,-5.17
2023-02-09T04:08:38.693Z,-5.23
2023-02-09T04:18:39.933Z,-5.28
2023-02-09T04:28:41.135Z,-5.31
2023-02-09T04:38:42.352Z,-5.45
2023-02-09T04:48:43.556Z,-5.56
2023-02-09T04:59:03.645Z,-5.60
2023-02-09T05:09:04.835Z,-5.63
2023-02-09T05:19:06.056Z,-5.73
2023-02-09T05:29:07.256Z,-5.68
2023-02-09T05:39:08.480Z,-5.77
2023-02-09T05:49:09.699Z,-5.77
2023-02-09T05:59:10.909Z,-5.93
2023-02-09T06:09:12.114Z,-5.97
2023-02-09T06:19:13.354Z,-5.97
2023-02-09T06:29:14.587Z,-5.92
2023-02-09T06:39:15.837Z,-6.10
2023-02-09T06:49:17.101Z,-6.13
2023-02-09T06:59:18.375Z,-5.95
2023-02-09T07:09:19.625Z,-5.91
2023-02-09T07:19:20.897Z,-5.92
2023-02-09T07:29:22.121Z,-5.79
2023-02-09T07:39:23.349Z,-5.61
2023-02-09T07:49:24.770Z,-5.39
2023-02-09T07:59:26.007Z,-5.09
2023-02-09T08:09:27.192Z,-4.68
2023-02-09T08:19:28.395Z,-4.43
2023-02-09T08:29:29.607Z,-4.11
2023-02-09T08:39:30.824Z,-3.87
2023-02-09T08:49:32.011Z,-3.56
2023-02-09T08:59:33.913Z,-3.21
2023-02-09T09:09:35.161Z,-3.00
2023-02-09T09:19:36.354Z,-2.69
2023-02-09T09:29:39.988Z,-1.84
2023-02-09T09:39:41.231Z,-1.81
2023-02-09T09:49:42.438Z,-1.54
2023-02-09T09:59:43.657Z,-1.32
2023-02-09T10:09:44.847Z,-0.97
2023-02-09T10:41:11.565Z,-0.14
2023-02-09T10:51:12.795Z,0.18
2023-02-09T11:01:14.034Z,0.58
2023-02-09T11:11:15.287Z,0.69
2023-02-09T11:21:16.489Z,0.86
2023-02-09T11:31:17.760Z,0.96
2023-02-09T11:41:37.570Z,1.19
2023-02-09T11:51:38.819Z,1.39
2023-02-09T12:01:40.261Z,1.72
2023-02-09T12:11:41.695Z,1.80
2023-02-09T12:21:42.923Z,2.04
2023-02-09T12:31:46.294Z,2.06
2023-02-09T12:41:49.502Z,2.29
2023-02-09T12:51:50.734Z,2.43
2023-02-09T13:01:51.930Z,2.54
2023-02-09T13:11:53.235Z,2.59
2023-02-09T13:21:56.289Z,2.73
2023-02-09T13:31:58.041Z,3.03
2023-02-09T13:41:59.401Z,3.11
2023-02-09T13:52:00.662Z,3.06
2023-02-09T14:02:01.857Z,3.09
2023-02-09T14:12:03.098Z,3.21
2023-02-09T14:22:04.315Z,3.32
2023-02-09T14:32:06.927Z,3.39
2023-02-09T14:42:08.139Z,3.39
2023-02-09T14:52:10.638Z,3.32
2023-02-09T15:02:12.038Z,3.32
2023-02-09T15:12:13.287Z,3.27
2023-02-09T15:22:15.130Z,3.07
2023-02-09T15:32:16.353Z,3.01
2023-02-09T15:42:36.408Z,2.95
2023-02-09T15:52:37.667Z,2.75
2023-02-09T16:02:38.896Z,2.66
2023-02-09T16:12:41.375Z,2.32
2023-02-09T16:22:42.645Z,2.12
2023-02-09T16:32:43.922Z,1.76
2023-02-09T16:42:46.701Z,1.28
2023-02-09T16:52:49.016Z,0.88
2023-02-09T17:02:50.280Z,0.53
2023-02-09T17:12:53.588Z,0.27
2023-02-09T17:22:55.142Z,-0.07
2023-02-09T17:32:56.415Z,-0.27
2023-02-09T17:42:59.002Z,-0.49
2023-02-09T17:53:00.289Z,-0.76
2023-02-09T18:03:01.625Z,-0.92
2023-02-09T18:13:02.937Z,-1.06
2023-02-09T18:23:04.359Z,-1.18
2023-02-09T18:33:05.634Z,-1.39
2023-02-09T18:43:06.849Z,-1.54
2023-02-09T18:53:08.093Z,-1.60
2023-02-09T19:03:09.329Z,-1.71
2023-02-09T19:13:10.600Z,-1.82
2023-02-09T19:23:11.876Z,-1.91
2023-02-09T19:33:13.510Z,-1.96
2023-02-09T19:43:14.748Z,-1.83
2023-02-09T19:53:15.993Z,-1.95
2023-02-09T20:03:22.141Z,-2.04
2023-02-09T20:13:47.381Z,-2.13
2023-02-09T20:23:48.737Z,-2.14
2023-02-09T20:33:50.264Z,-2.24
2023-02-09T20:44:10.272Z,-2.25
2023-02-09T20:54:18.797Z,-2.35
2023-02-09T21:04:20.048Z,-2.44
2023-02-09T21:14:27.475Z,-2.55
2023-02-09T21:24:33.661Z,-2.44
2023-02-09T21:34:35.014Z,-2.58
2023-02-09T21:44:36.776Z,-2.67
2023-02-09T21:54:38.043Z,-2.80
2023-02-09T22:04:39.722Z,-2.89
2023-02-09T22:14:40.959Z,-2.97
2023-02-09T22:24:42.205Z,-3.12
2023-02-09T22:34:43.626Z,-3.22
2023-02-09T22:44:44.856Z,-3.27
2023-02-09T22:54:46.103Z,-3.24
2023-02-09T23:04:47.328Z,-3.21
2023-02-09T23:14:48.587Z,-3.34
2023-02-09T23:24:49.880Z,-3.33
2023-02-09T23:34:51.109Z,-3.37
2023-02-09T23:44:52.350Z,-3.35
2023-02-09T23:54:53.647Z,-3.36
